METAR / TAF
Helsinki-Vantaa
HELSINKI/VANTAA
Metar
EFHK 191420Z 01006KT 9999 FEW018 SCT022 BKN150 09/05 Q1009 NOSIG

14:20 UTC

Wind: 10° 6kt

Visibility: 9999 m

Sky: FEW 1800 ft

Temp: 9 deg C / 48.2 deg F

Dewpoint: 5 deg C / 41 deg F

Pressure: 1009 hPa

TAF
TAF EFHK 191135Z 1912/2012 33008KT 9999 FEW012 BKN020 PROB30 TEMPO 1912/1918 6000 -RA BKN012 BKN030CB PROB30 TEMPO 2000/2006 1500 BR BKN005
Helsinki, Malmi
HELSINKI/MALMI
Turku
TURKU/ABO
Metar
EFTU 191420Z AUTO 03004KT 9999 -RA BKN064/// OVC072/// 08/06 Q1010

14:20 UTC

Wind: 30° 4kt

Visibility: 9999 m

Sky: BKN 6400 ft

Temp: 8 deg C / 46.4 deg F

Dewpoint: 6 deg C / 42.8 deg F

Pressure: 1010 hPa

TAF
TAF EFTU 191135Z 1912/2012 02006KT 9999 FEW012 BKN025 TEMPO 1912/1918 6000 -RA BKN012 TEMPO 2000/2006 1500 BR BKN005
Tampere, Pirkkala
TAMPERE/PIRKKALA
Metar
EFTP 191420Z AUTO VRB02KT 9999 BKN022 OVC027 07/03 Q1010

14:20 UTC

Wind: ° 2kt

Visibility: 9999 m

Sky: BKN 2200 ft

Temp: 7 deg C / 44.6 deg F

Dewpoint: 3 deg C / 37.4 deg F

Pressure: 1010 hPa

TAF
TAF EFTP 191131Z 1912/2012 03004KT 9999 BKN025 TEMPO 1921/2003 BKN012 PROB30 2009/2012 BKN010
Maarianhamina
MARIEHAMN/ALAND
Metar
EFMA 191420Z AUTO 36006KT 9999 FEW011 BKN029 OVC060 09/08 Q1010

14:20 UTC

Wind: 360° 6kt

Visibility: 9999 m

Sky: FEW 1100 ft

Temp: 9 deg C / 48.2 deg F

Dewpoint: 8 deg C / 46.4 deg F

Pressure: 1010 hPa

TAF
TAF EFMA 191135Z 1912/1921 01006KT 9999 -RA FEW012 BKN020 PROB40 TEMPO 1912/1921 6000 RA BKN012
Pori
PORI (MIL/CIV)
Metar
EFPO 191420Z AUTO 35004KT 290V050 9999 OVC028/// 08/03 Q1011

14:20 UTC

Wind: 350° 4kt

Visibility: 9999 m

Sky: OVC 2800 ft

Temp: 8 deg C / 46.4 deg F

Dewpoint: 3 deg C / 37.4 deg F

Pressure: 1011 hPa

TAF
TAF EFPO 191131Z 1912/1921 03005KT 9999 BKN025
Vaasa
VAASA
Metar
EFVA 191420Z AUTO 03009KT 350V050 9999 SCT028/// BKN032/// 08/02 Q1012

14:20 UTC

Wind: 30° 9kt

Visibility: 9999 m

Sky: SCT 2800 ft

Temp: 8 deg C / 46.4 deg F

Dewpoint: 2 deg C / 35.6 deg F

Pressure: 1012 hPa

TAF
TAF EFVA 191131Z 1912/2012 04008KT 9999 BKN030 TEMPO 2000/2012 BKN010
Kruunupyy
KRUUNUPYY
Metar
EFKK 191420Z AUTO 02006KT 360V060 9999 BKN023 BKN060 08/04 Q1012

14:20 UTC

Wind: 20° 6kt

Visibility: 9999 m

Sky: BKN 2300 ft

Temp: 8 deg C / 46.4 deg F

Dewpoint: 4 deg C / 39.2 deg F

Pressure: 1012 hPa

TAF
TAF EFKK 191131Z 1912/1921 02011KT 9999 BKN025 TEMPO 1918/1921 6000 RA BKN012
Jyväskylä, Tikkakoski
JYVASKYLA (MIL/C
Metar
EFJY 191420Z AUTO 33006KT 5000 -RA OVC006 06/05 Q1009

14:20 UTC

Wind: 330° 6kt

Visibility: 5000 m

Sky: OVC 600 ft

Temp: 6 deg C / 42.8 deg F

Dewpoint: 5 deg C / 41 deg F

Pressure: 1009 hPa

TAF
TAF EFJY 191131Z 1912/2012 36009KT 9999 BKN020 BECMG 1913/1915 BKN012 TEMPO 2003/2009 6000 BKN008
Kuopio
KUOPIO (MIL/CIV)
Metar
EFKU 191420Z AUTO 02009KT 9999 -SHRA OVC014 08/06 Q1009

14:20 UTC

Wind: 20° 9kt

Visibility: 9999 m

Sky: OVC 1400 ft

Temp: 8 deg C / 46.4 deg F

Dewpoint: 6 deg C / 42.8 deg F

Pressure: 1009 hPa

TAF
TAF EFKU 191134Z 1912/2012 35010KT 9999 -RA BKN015 TEMPO 1912/1919 BKN013 BECMG 1921/1924 05009KT TEMPO 2000/2012 7000 RA BKN012
Joensuu
JOENSUU
Metar
EFJO 191420Z 01010KT 340V040 8000 -RA BKN007 OVC025 07/07 Q1007

14:20 UTC

Wind: 10° 10kt

Visibility: 8000 m

Sky: BKN 700 ft

Temp: 7 deg C / 44.6 deg F

Dewpoint: 7 deg C / 44.6 deg F

Pressure: 1007 hPa

TAF
TAF AMD EFJO 191354Z 1913/1921 35009KT 9999 -RA BKN011 TEMPO 1913/1915 4500 SHRA BKN009 TEMPO 1915/1918 BKN015
Halli
HALLI (FIN-AFB)
Metar
EFHA 191420Z AUTO 01007KT 9999 OVC021 07/04 Q1010

14:20 UTC

Wind: 10° 7kt

Visibility: 9999 m

Sky: OVC 2100 ft

Temp: 7 deg C / 44.6 deg F

Dewpoint: 4 deg C / 39.2 deg F

Pressure: 1010 hPa

TAF
TAF EFHA 191131Z 1912/1914 36008KT 9999 BKN020
Utti
UTTI (FIN-AFB)
Metar
EFUT 191420Z AUTO 32006KT 280V010 9999 OVC017 08/05 Q1009

14:20 UTC

Wind: 320° 6kt

Visibility: 9999 m

Sky: OVC 1700 ft

Temp: 8 deg C / 46.4 deg F

Dewpoint: 5 deg C / 41 deg F

Pressure: 1009 hPa

TAF
TAF EFUT 190830Z 1909/1913 35007KT 9999 BKN017
Mikkeli
MIKKELI
Metar
EFMI 191420Z AUTO 30003KT 9999 OVC008 07/06 Q1009

14:20 UTC

Wind: 300° 3kt

Visibility: 9999 m

Sky: OVC 800 ft

Temp: 7 deg C / 44.6 deg F

Dewpoint: 6 deg C / 42.8 deg F

Pressure: 1009 hPa

Savonlinna
SAVONLINNA (AUT)
Metar
EFSA 191420Z 32004KT 280V360 9999 OVC012 09/08 Q1007

14:20 UTC

Wind: 320° 4kt

Visibility: 9999 m

Sky: OVC 1200 ft

Temp: 9 deg C / 48.2 deg F

Dewpoint: 8 deg C / 46.4 deg F

Pressure: 1007 hPa

TAF
TAF EFSA 191134Z 1912/1921 33009KT 9999 BKN014 TEMPO 1912/1918 6000 -RA BKN009
Lappeenranta
LAPPEENRANTA
Metar
EFLP 191420Z AUTO 31005KT 270V360 9999 OVC017 09/06 Q1008

14:20 UTC

Wind: 310° 5kt

Visibility: 9999 m

Sky: OVC 1700 ft

Temp: 9 deg C / 48.2 deg F

Dewpoint: 6 deg C / 42.8 deg F

Pressure: 1008 hPa

TAF
TAF EFLP 190830Z 1909/1912 34008KT 9999 BKN015 TEMPO 1909/1912 BKN014
Oulu
OULU/ULEABORG
Metar
EFOU 191420Z AUTO 07009KT 030V110 9999 SCT027/// BKN086/// OVC098/// 09/05 Q1014

14:20 UTC

Wind: 70° 9kt

Visibility: 9999 m

Sky: SCT 2700 ft

Temp: 9 deg C / 48.2 deg F

Dewpoint: 5 deg C / 41 deg F

Pressure: 1014 hPa

TAF
TAF EFOU 191125Z 1912/2012 04007KT 9999 -RA FEW010 BKN015 TEMPO 1912/1913 BKN009
Kemi
KEMI
Metar
EFKE 191420Z AUTO 05009KT 010V090 9999 BKN028 10/05 Q1016

14:20 UTC

Wind: 50° 9kt

Visibility: 9999 m

Sky: BKN 2800 ft

Temp: 10 deg C / 50 deg F

Dewpoint: 5 deg C / 41 deg F

Pressure: 1016 hPa

TAF
TAF EFKE 191125Z 1912/1921 03011KT 9999 -SHRA BKN020
Rovaniemi
ROVANIEMI (CIV/M
Metar
EFRO 191420Z AUTO 06015KT 9999 OVC023 08/03 Q1018

14:20 UTC

Wind: 60° 15kt

Visibility: 9999 m

Sky: OVC 2300 ft

Temp: 8 deg C / 46.4 deg F

Dewpoint: 3 deg C / 37.4 deg F

Pressure: 1018 hPa

TAF
TAF EFRO 191125Z 1912/2012 04016KT 9999 BKN018 BECMG 1919/1921 05006KT
Enontekiö
ENONTEKIO
Metar
EFET 191420Z AUTO 07006KT 020V110 9999 OVC018 06/02 Q1021

14:20 UTC

Wind: 70° 6kt

Visibility: 9999 m

Sky: OVC 1800 ft

Temp: 6 deg C / 42.8 deg F

Dewpoint: 2 deg C / 35.6 deg F

Pressure: 1021 hPa

Ivalo
IVALO
Metar
EFIV 191050Z AUTO 05011KT 9999 OVC023 06/02 Q1022

10:50 UTC

Wind: 50° 11kt

Visibility: 9999 m

Sky: OVC 2300 ft

Temp: 6 deg C / 42.8 deg F

Dewpoint: 2 deg C / 35.6 deg F

Pressure: 1022 hPa

TAF
TAF EFIV 190835Z 1909/1911 04010KT 9999 OVC018
Kittilä
KITTILA
Metar
EFKT 191420Z AUTO 04010KT 9999 OVC018 06/02 Q1021

14:20 UTC

Wind: 40° 10kt

Visibility: 9999 m

Sky: OVC 1800 ft

Temp: 6 deg C / 42.8 deg F

Dewpoint: 2 deg C / 35.6 deg F

Pressure: 1021 hPa

TAF
TAF EFKT 190835Z 1909/1912 05011KT 9999 BKN020
Kuusamo
KUUSAMO
Metar
EFKS 191420Z AUTO 04007KT 350V090 9999 -SHRA OVC014 05/03 Q1016

14:20 UTC

Wind: 40° 7kt

Visibility: 9999 m

Sky: OVC 1400 ft

Temp: 5 deg C / 41 deg F

Dewpoint: 3 deg C / 37.4 deg F

Pressure: 1016 hPa

TAF
TAF EFKS 190835Z 1909/1913 06012KT 9999 OVC008 TEMPO 1909/1913 07015G25KT 7000 -RA BKN010
Kajaani
KAJAANI
Metar
EFKI 191420Z 05015KT 020V090 9999 OVC023 08/03 Q1012

14:20 UTC

Wind: 50° 15kt

Visibility: 9999 m

Sky: OVC 2300 ft

Temp: 8 deg C / 46.4 deg F

Dewpoint: 3 deg C / 37.4 deg F

Pressure: 1012 hPa

TAF
TAF EFKI 191134Z 1912/1921 04009KT 9999 BKN015 TEMPO 1912/1918 04010G20KT BKN009 TEMPO 1918/1921 7000 -RA BKN010
Varkaus
VARKAUS
Seinäjoki
SEINAJOKI-ILMAJO
Metar
EFSI 191420Z AUTO 02006KT 340V060 9999 BKN026 OVC033 07/02 Q1011

14:20 UTC

Wind: 20° 6kt

Visibility: 9999 m

Sky: BKN 2600 ft

Temp: 7 deg C / 44.6 deg F

Dewpoint: 2 deg C / 35.6 deg F

Pressure: 1011 hPa

Print Friendly, PDF & Email